Darstellungsparameter: Aktuell verwendete Einstellungen:
Skalierung der Graphiken ... ?
xyx+y,   Skalierungsfaktor:      Skalierung: Modus: x, Faktor: 1
Darstellungszeitraum ... ?
Vom - - bis: - -   Zeitraum: 09.05.2017 - 15.05.2017
Min/Max/Avg-Anzeige ... ?
Zeige MMA aktuell
Zeige MMA Monat
Zeige MMA alles
Zeige --A aktuell
Zeige --A Monat
Zeige --A alles
Keine MMA-Anzeige
MMA:
Minimum Maximum Average (ber die Originaldaten)
MMA-Basis: 14.04.2020 - 16.05.2020
Quicknavigation für Darstellung... ?
Tage:      1T, 2T, 3T, 5T -1T -2T -3T -5T +1T +2T +3T +5T
Wochen: 1W, 2W, 3W -1W -2W -3W +1W +2W +3W
Monate: 1M, 3M, 6M -1M -3M -6M +1M +3M +6M
Jahre:    1J, 3J, 5J, 10J -1J -3J -5J -10J +1J +3J +5J +10J
Nutze für die Darstellung ... ?
Originaldaten oder ...
Mittelwerte Minima Maxima auf...
Stundenbasis Tagesbasis Wochenbasis
Monatsbasis Jahresbasis      Datenbasis: Mittelwerte auf Stundenbasis
Darstellen als:
Statistik (Auto) Statistik J:M      Darstellung:
Zur Graphik,    zurück zur Übersicht aller Sensoren.
 
Tabellarische Datenbersicht: ?
 
Sensor: Nr:Datum:Temp:Abs-Feuchte:Windchill:Wind:
Aussen-T/F 1 09-05-2017 00:00:00 7.475 C 7.43 g/m*3 7.48 C 0.13333 km/h
2 09-05-2017 01:00:00 6.725 C 7.16 g/m*3 6.73 C 0 km/h
3 09-05-2017 02:00:00 6.15833 C 6.91 g/m*3 6.16 C 0 km/h
4 09-05-2017 03:00:00 5.66667 C 6.75 g/m*3 5.67 C 0 km/h
5 09-05-2017 04:00:00 5.8 C 6.84 g/m*3 5.8 C 0 km/h
6 09-05-2017 05:00:00 6.21667 C 7.07 g/m*3 6.22 C 0.13333 km/h
7 09-05-2017 06:00:00 6.25 C 7.08 g/m*3 6.25 C 0.93333 km/h
8 09-05-2017 07:00:00 6.13333 C 6.96 g/m*3 6.13 C 0.66667 km/h
9 09-05-2017 08:00:00 6.7 C 7.03 g/m*3 6.7 C 1.46667 km/h
10 09-05-2017 09:00:00 7.475 C 6.94 g/m*3 7.48 C 1.875 km/h
11 09-05-2017 10:00:00 9.16667 C 6.09 g/m*3 8.47 C 6.16667 km/h
12 09-05-2017 11:00:00 10.25 C 4.99 g/m*3 8.53 C 12.63333 km/h
13 09-05-2017 12:00:00 11.00833 C 5.09 g/m*3 11.01 C 12.625 km/h
14 09-05-2017 13:00:00 11.93333 C 5 g/m*3 11.93 C 10.20833 km/h
15 09-05-2017 14:00:00 12.68333 C 5.13 g/m*3 12.68 C 8.73333 km/h
16 09-05-2017 15:00:00 14.14167 C 5.31 g/m*3 14.14 C 9.53333 km/h
17 09-05-2017 16:00:00 15.10833 C 5.46 g/m*3 15.11 C 7.65833 km/h
18 09-05-2017 17:00:00 15.73333 C 5.54 g/m*3 15.73 C 7.65 km/h
19 09-05-2017 18:00:00 16.025 C 5.49 g/m*3 16.02 C 8.88333 km/h
20 09-05-2017 19:00:00 15.03333 C 5.55 g/m*3 15.03 C 7.525 km/h
21 09-05-2017 20:00:00 12.91667 C 5.87 g/m*3 12.92 C 3.34167 km/h
22 09-05-2017 21:00:00 9.5 C 6.36 g/m*3 9.5 C 1.06667 km/h
23 09-05-2017 22:00:00 8.11667 C 6.17 g/m*3 8.12 C 0.53333 km/h
24 09-05-2017 23:00:00 6.56667 C 6.19 g/m*3 6.57 C 0 km/h
25 10-05-2017 00:00:00 5.15833 C 5.9 g/m*3 5.16 C 0 km/h
Sensor: Nr:Datum:Temp:Abs-Feuchte:Windchill:Wind:
Aussen-T/F 26 10-05-2017 01:00:00 4.25833 C 5.72 g/m*3 4.26 C 0 km/h
27 10-05-2017 02:00:00 3.75 C 5.64 g/m*3 3.75 C 0 km/h
28 10-05-2017 03:00:00 3.15833 C 5.49 g/m*3 3.16 C 0 km/h
29 10-05-2017 04:00:00 2.56667 C 5.33 g/m*3 2.57 C 0 km/h
30 10-05-2017 05:00:00 2.11667 C 5.22 g/m*3 2.12 C 0 km/h
31 10-05-2017 06:00:00 1.85 C 5.17 g/m*3 1.85 C 0 km/h
32 10-05-2017 07:00:00 2.175 C 5.32 g/m*3 2.17 C 0 km/h
33 10-05-2017 08:00:00 3.14167 C 5.7 g/m*3 3.14 C 0 km/h
34 10-05-2017 09:00:00 4.775 C 6.35 g/m*3 4.78 C 0 km/h
35 10-05-2017 10:00:00 7.55 C 7.23 g/m*3 7.55 C 0 km/h
36 10-05-2017 11:00:00 11.10833 C 6.83 g/m*3 11.11 C 3.48333 km/h
37 10-05-2017 12:00:00 13.23333 C 6.25 g/m*3 13.23 C 5.625 km/h
38 10-05-2017 13:00:00 14.5 C 6.13 g/m*3 14.5 C 5.475 km/h
39 10-05-2017 14:00:00 15.78333 C 6.15 g/m*3 15.78 C 7.25833 km/h
40 10-05-2017 15:00:00 18.03333 C 6.25 g/m*3 18.03 C 8.60833 km/h
41 10-05-2017 16:00:00 19.93333 C 6.3 g/m*3 19.93 C 8.85833 km/h
42 10-05-2017 17:00:00 20.7 C 6.33 g/m*3 20.7 C 11.43333 km/h
43 10-05-2017 18:00:00 21.24167 C 6.63 g/m*3 21.24 C 8.59167 km/h
44 10-05-2017 19:00:00 20.125 C 6.89 g/m*3 20.13 C 7.8 km/h
45 10-05-2017 20:00:00 17.03333 C 8.41 g/m*3 17.03 C 1.33333 km/h
46 10-05-2017 21:00:00 13.15 C 7.97 g/m*3 13.15 C 1.33333 km/h
47 10-05-2017 22:00:00 11.54167 C 7.65 g/m*3 11.54 C 0.93333 km/h
48 10-05-2017 23:00:00 10.21667 C 7.35 g/m*3 10.22 C 0 km/h
49 11-05-2017 00:00:00 8.56667 C 7.03 g/m*3 8.57 C 0 km/h
50 11-05-2017 01:00:00 7.66667 C 6.82 g/m*3 7.67 C 0 km/h
Sensor: Nr:Datum:Temp:Abs-Feuchte:Windchill:Wind:
Aussen-T/F 51 11-05-2017 02:00:00 6.90833 C 6.67 g/m*3 6.91 C 0 km/h
52 11-05-2017 03:00:00 6.10833 C 6.52 g/m*3 6.11 C 0 km/h
53 11-05-2017 04:00:00 5.525 C 6.44 g/m*3 5.53 C 0 km/h
54 11-05-2017 05:00:00 5.25 C 6.4 g/m*3 5.25 C 0 km/h
55 11-05-2017 06:00:00 5.59167 C 6.64 g/m*3 5.59 C 0 km/h
56 11-05-2017 07:00:00 6.6 C 7.13 g/m*3 6.6 C 0 km/h
57 11-05-2017 08:00:00 8.51667 C 7.91 g/m*3 8.52 C 0 km/h
58 11-05-2017 09:00:00 11.125 C 8.88 g/m*3 11.13 C 0.13333 km/h
59 11-05-2017 10:00:00 14.225 C 9.73 g/m*3 14.23 C 2.4 km/h
60 11-05-2017 11:00:00 16.675 C 9.31 g/m*3 16.68 C 6.3 km/h
61 11-05-2017 12:00:00 17.90833 C 9.61 g/m*3 17.91 C 5.08333 km/h
62 11-05-2017 13:00:00 20.01667 C 9.49 g/m*3 20.02 C 11.025 km/h
63 11-05-2017 14:00:00 21.91667 C 9.8 g/m*3 21.92 C 9.28333 km/h
64 11-05-2017 15:00:00 23.54167 C 10.02 g/m*3 23.54 C 11.425 km/h
65 11-05-2017 16:00:00 24.225 C 9.79 g/m*3 24.23 C 10.89167 km/h
66 11-05-2017 17:00:00 23.15833 C 9.9 g/m*3 23.16 C 7.65 km/h
67 11-05-2017 18:00:00 21.53333 C 10.82 g/m*3 21.53 C 2.54167 km/h
68 11-05-2017 19:00:00 20.23333 C 10.61 g/m*3 20.23 C 2.94167 km/h
69 11-05-2017 20:00:00 18.83333 C 9.72 g/m*3 18.83 C 1.33333 km/h
70 11-05-2017 21:00:00 16.74167 C 10.17 g/m*3 16.74 C 0.53333 km/h
71 11-05-2017 22:00:00 15.61667 C 10.18 g/m*3 15.62 C 0.13333 km/h
72 11-05-2017 23:00:00 15.16667 C 10.27 g/m*3 15.17 C 0 km/h
73 12-05-2017 00:00:00 14.38333 C 10.73 g/m*3 14.38 C 0.13333 km/h
74 12-05-2017 01:00:00 13.43333 C 10.68 g/m*3 13.43 C 0 km/h
75 12-05-2017 02:00:00 13.06667 C 10.65 g/m*3 13.07 C 0 km/h
Sensor: Nr:Datum:Temp:Abs-Feuchte:Windchill:Wind:
Aussen-T/F 76 12-05-2017 03:00:00 12.86667 C 10.6 g/m*3 12.87 C 0 km/h
77 12-05-2017 04:00:00 12.775 C 10.62 g/m*3 12.78 C 0 km/h
78 12-05-2017 05:00:00 12.7 C 10.58 g/m*3 12.7 C 0 km/h
79 12-05-2017 06:00:00 12.71667 C 10.7 g/m*3 12.72 C 0.13333 km/h
80 12-05-2017 07:00:00 13.2 C 11.02 g/m*3 13.2 C 0.13333 km/h
81 12-05-2017 08:00:00 14.05 C 11.62 g/m*3 14.05 C 0.13333 km/h
82 12-05-2017 09:00:00 14.84167 C 12.17 g/m*3 14.84 C 2.13333 km/h
83 12-05-2017 10:00:00 15.375 C 12.28 g/m*3 15.38 C 5.23333 km/h
84 12-05-2017 11:00:00 16.675 C 12.19 g/m*3 16.68 C 11.825 km/h
85 12-05-2017 12:00:00 17.425 C 11.7 g/m*3 17.43 C 11.01667 km/h
86 12-05-2017 13:00:00 18.96667 C 11.6 g/m*3 18.97 C 10.225 km/h
87 12-05-2017 14:00:00 20.06667 C 11.39 g/m*3 20.07 C 11.83333 km/h
88 12-05-2017 15:00:00 22.44167 C 11.16 g/m*3 22.44 C 10.625 km/h
89 12-05-2017 16:00:00 23.00833 C 12.08 g/m*3 23.01 C 5.36667 km/h
90 12-05-2017 17:00:00 19.45833 C 13.53 g/m*3 19.46 C 1.73333 km/h
91 12-05-2017 18:00:00 17.76667 C 12.69 g/m*3 17.77 C 0.8 km/h
92 12-05-2017 19:00:00 17.06667 C 12.41 g/m*3 17.07 C 0.13333 km/h
93 12-05-2017 20:00:00 15.99167 C 11.47 g/m*3 15.99 C 0.4 km/h
94 12-05-2017 21:00:00 14.89167 C 11.09 g/m*3 14.89 C 0 km/h
95 12-05-2017 22:00:00 14.25833 C 11.19 g/m*3 14.26 C 0 km/h
96 12-05-2017 23:00:00 14.05 C 11.13 g/m*3 14.05 C 0 km/h
97 13-05-2017 00:00:00 13.73333 C 10.92 g/m*3 13.73 C 0 km/h
98 13-05-2017 01:00:00 13.35833 C 10.73 g/m*3 13.36 C 0 km/h
99 13-05-2017 02:00:00 12.875 C 10.39 g/m*3 12.88 C 0 km/h
100 13-05-2017 03:00:00 11.74167 C 9.73 g/m*3 11.74 C 0 km/h
Sensor: Nr:Datum:Temp:Abs-Feuchte:Windchill:Wind:
Aussen-T/F 101 13-05-2017 04:00:00 11.275 C 9.61 g/m*3 11.28 C 0 km/h
102 13-05-2017 05:00:00 11.575 C 9.86 g/m*3 11.58 C 0 km/h
103 13-05-2017 06:00:00 11.89167 C 10.11 g/m*3 11.89 C 0.13333 km/h
104 13-05-2017 07:00:00 12.575 C 10.59 g/m*3 12.58 C 2 km/h
105 13-05-2017 08:00:00 13.64167 C 11.07 g/m*3 13.64 C 3.075 km/h
106 13-05-2017 09:00:00 15.1 C 11.63 g/m*3 15.1 C 6.69167 km/h
107 13-05-2017 10:00:00 16.75 C 11.8 g/m*3 16.75 C 7.375 km/h
108 13-05-2017 11:00:00 18.425 C 11.96 g/m*3 18.43 C 6.41667 km/h
109 13-05-2017 12:00:00 19.93333 C 11.2 g/m*3 19.93 C 12.76667 km/h
110 13-05-2017 13:00:00 20.56667 C 11.21 g/m*3 20.57 C 11.95833 km/h
111 13-05-2017 14:00:00 21.41667 C 11.09 g/m*3 21.42 C 12.63333 km/h
112 13-05-2017 15:00:00 22.89167 C 10.96 g/m*3 22.89 C 10.88333 km/h
113 13-05-2017 16:00:00 25.375 C 10.07 g/m*3 25.38 C 13.03333 km/h
114 13-05-2017 17:00:00 25.375 C 10.05 g/m*3 25.38 C 13.83333 km/h
115 13-05-2017 18:00:00 23.975 C 9.83 g/m*3 23.98 C 13.16667 km/h
116 13-05-2017 19:00:00 21.66667 C 10.19 g/m*3 21.67 C 9.79167 km/h
117 13-05-2017 20:00:00 19.475 C 10.64 g/m*3 19.48 C 2.54167 km/h
118 13-05-2017 21:00:00 17.73333 C 10.83 g/m*3 17.73 C 2.8 km/h
119 13-05-2017 22:00:00 16.6 C 10.79 g/m*3 16.6 C 0.8 km/h
120 13-05-2017 23:00:00 15.93333 C 10.71 g/m*3 15.93 C 1.73333 km/h
121 14-05-2017 00:00:00 14.88333 C 10.59 g/m*3 14.88 C 0.13333 km/h
122 14-05-2017 01:00:00 14.325 C 10.6 g/m*3 14.33 C 0 km/h
123 14-05-2017 02:00:00 13.8 C 10.55 g/m*3 13.8 C 0 km/h
124 14-05-2017 03:00:00 13.39167 C 10.44 g/m*3 13.39 C 0 km/h
125 14-05-2017 04:00:00 12.98333 C 10.23 g/m*3 12.98 C 1.33333 km/h
Sensor: Nr:Datum:Temp:Abs-Feuchte:Windchill:Wind:
Aussen-T/F 126 14-05-2017 05:00:00 12.90833 C 10.21 g/m*3 12.91 C 2.66667 km/h
127 14-05-2017 06:00:00 12.55 C 9.98 g/m*3 12.55 C 0.26667 km/h
128 14-05-2017 07:00:00 12.325 C 10.06 g/m*3 12.33 C 0 km/h
129 14-05-2017 08:00:00 12.93333 C 10.58 g/m*3 12.93 C 2.675 km/h
130 14-05-2017 09:00:00 15.20833 C 11.66 g/m*3 15.21 C 4.54167 km/h
131 14-05-2017 10:00:00 18.49167 C 11.78 g/m*3 18.49 C 8.73333 km/h
132 14-05-2017 11:00:00 19.16667 C 11.07 g/m*3 19.17 C 8.875 km/h
133 14-05-2017 12:00:00 18.98333 C 10.74 g/m*3 18.98 C 13.16667 km/h
134 14-05-2017 13:00:00 17.775 C 11.43 g/m*3 17.77 C 5.48333 km/h
135 14-05-2017 14:00:00 19.23333 C 11.21 g/m*3 19.23 C 6.99167 km/h
136 14-05-2017 15:00:00 22.08333 C 11.31 g/m*3 22.08 C 11.03333 km/h
137 14-05-2017 16:00:00 22.03333 C 12.41 g/m*3 22.03 C 7.525 km/h
138 14-05-2017 17:00:00 20.26667 C 13.06 g/m*3 20.27 C 2.675 km/h
139 14-05-2017 18:00:00 17.88333 C 12.46 g/m*3 17.88 C 0.8 km/h
140 14-05-2017 19:00:00 18.24167 C 12.04 g/m*3 18.24 C 3.9 km/h
141 14-05-2017 20:00:00 18 C 11.52 g/m*3 18 C 3.075 km/h
142 14-05-2017 21:00:00 15.30833 C 10.83 g/m*3 15.31 C 5.775 km/h
143 14-05-2017 22:00:00 13.30833 C 10.45 g/m*3 13.31 C 0.93333 km/h
144 14-05-2017 23:00:00 12.00833 C 9.82 g/m*3 12.01 C 0 km/h
145 15-05-2017 00:00:00 11.39167 C 9.62 g/m*3 11.39 C 1.46667 km/h
146 15-05-2017 01:00:00 10.95833 C 9.43 g/m*3 10.96 C 1.2 km/h
147 15-05-2017 02:00:00 10.30833 C 9.07 g/m*3 10.31 C 1.2 km/h
148 15-05-2017 03:00:00 9.85833 C 8.85 g/m*3 9.86 C 2.13333 km/h
149 15-05-2017 04:00:00 9.50833 C 8.65 g/m*3 9.51 C 2.26667 km/h
150 15-05-2017 05:00:00 9.19167 C 8.52 g/m*3 9.19 C 0.13333 km/h
Sensor: Nr:Datum:Temp:Abs-Feuchte:Windchill:Wind:
Aussen-T/F 151 15-05-2017 06:00:00 8.725 C 8.26 g/m*3 8.73 C 0.13333 km/h
152 15-05-2017 07:00:00 9.38333 C 8.68 g/m*3 9.38 C 0.26667 km/h
153 15-05-2017 08:00:00 10.84167 C 9.54 g/m*3 10.84 C 0.8 km/h
154 15-05-2017 09:00:00 12.45 C 10.29 g/m*3 12.45 C 2 km/h
155 15-05-2017 10:00:00 14.34167 C 10.63 g/m*3 14.34 C 3.46667 km/h
156 15-05-2017 11:00:00 15.44167 C 10.88 g/m*3 15.44 C 4.40833 km/h
157 15-05-2017 12:00:00 17.08333 C 10.09 g/m*3 17.08 C 5.06667 km/h
158 15-05-2017 13:00:00 18.21667 C 9.98 g/m*3 18.22 C 3.88333 km/h
159 15-05-2017 14:00:00 19.35 C 9.29 g/m*3 19.35 C 5.75833 km/h
160 15-05-2017 15:00:00 21.61667 C 8.21 g/m*3 21.62 C 8.34167 km/h
161 15-05-2017 16:00:00 24.55833 C 7.75 g/m*3 24.56 C 6.70833 km/h
162 15-05-2017 17:00:00 25.075 C 7.17 g/m*3 25.08 C 6.7 km/h
163 15-05-2017 18:00:00 25.54167 C 6.7 g/m*3 25.54 C 6.31667 km/h
164 15-05-2017 19:00:00 23.99167 C 8.21 g/m*3 23.99 C 2 km/h
165 15-05-2017 20:00:00 19.925 C 8.59 g/m*3 19.93 C 1.2 km/h
166 15-05-2017 21:00:00 16.28333 C 7.88 g/m*3 16.28 C 0.93333 km/h
167 15-05-2017 22:00:00 14.13333 C 8.11 g/m*3 14.13 C 0 km/h
168 15-05-2017 23:00:00 12.24167 C 7.77 g/m*3 12.24 C 0 km/h

Maximal/Minimal-Werte vom 14.04.2020 - 16.05.2020

Sensor Min Max Avg
Temp
(Aussen-T/F)
-0.1 °C
15-04-2020  06:55:00
26.2 °C
17-04-2020  18:05:00
11.98 °C

Die Daten stammen von einer Davis Vantage Pro 2 Wetter-Station und werden unter Linux mit der Software wview2wettercgi und aufbereitet. Alle Angaben erfolgen ohne Gewähr für ihre Vollständigkeit oder Richtigkeit.
Kontakt: Rainer Krienke krienke@uni-koblenz.de . Meine Webseiten an der Uni Koblenz oder privat.
Version: $Revision: 0.78 $